Itu, Brazil
Current Conditions -  °F | °C
As of 10:00 AM on Friday 19 Dec 2014 (Local Time) from SBKP Reporting Station
Scattered Clouds Scattered Clouds  
Wind Chill: 79°   Ceiling: Unl
Heat Index: 81°   Visibility: 6mi
Dew Point: 66°   Wind: 12mph
Humidity: 65%   Direction: 10°N
Pressure: 29.91"   Gusts: NA
Location:  23.26°S, 47.3°W
Report Text: SBKP 191200Z 01010KT 9999 SCT023 26/19 Q1013
Loading
Personal Weather Stations






























Interactive Weather Map New forecast layout! Learn more

10-Day Weather Forecast

Advertisements
Track Severe Weather on mobile